createdAt,value
2018-06-07T00:00:21.624Z,16.10
2018-06-07T00:01:21.631Z,16.05
2018-06-07T00:02:21.651Z,16.02
2018-06-07T00:03:21.765Z,16.00
2018-06-07T00:04:21.666Z,16.03
2018-06-07T00:05:21.694Z,15.99
2018-06-07T00:06:21.691Z,16.02
2018-06-07T00:07:21.832Z,16.02
2018-06-07T00:08:21.944Z,16.02
2018-06-07T00:09:21.731Z,15.99
2018-06-07T00:10:21.748Z,16.00
2018-06-07T00:11:21.883Z,15.94
2018-06-07T00:12:21.761Z,16.05
2018-06-07T00:13:22.005Z,16.03
2018-06-07T00:14:21.918Z,16.02
2018-06-07T00:15:21.928Z,16.03
2018-06-07T00:16:21.813Z,16.00
2018-06-07T00:17:21.825Z,16.02
2018-06-07T00:18:21.949Z,16.02
2018-06-07T00:19:21.981Z,15.99
2018-06-07T00:20:21.865Z,15.99
2018-06-07T00:21:21.877Z,16.00
2018-06-07T00:22:22.017Z,16.00
2018-06-07T00:23:22.129Z,15.92
2018-06-07T00:24:22.042Z,15.90
2018-06-07T00:25:21.937Z,15.94
2018-06-07T00:26:22.070Z,15.87
2018-06-07T00:27:21.965Z,15.83
2018-06-07T00:28:21.969Z,15.81
2018-06-07T00:29:22.075Z,15.80
2018-06-07T00:30:21.992Z,15.78
2018-06-07T00:31:21.999Z,15.75
2018-06-07T00:32:22.141Z,15.81
2018-06-07T00:33:22.025Z,15.76
2018-06-07T00:34:22.203Z,15.78
2018-06-07T00:35:22.156Z,15.67
2018-06-07T00:36:22.081Z,15.78
2018-06-07T00:37:22.070Z,15.78
2018-06-07T00:38:22.097Z,15.80
2018-06-07T00:39:22.275Z,15.84
2018-06-07T00:40:22.334Z,15.81
2018-06-07T00:41:22.125Z,15.67
2018-06-07T00:42:22.151Z,15.76
2018-06-07T00:43:22.272Z,15.73
2018-06-07T00:44:22.166Z,15.78
2018-06-07T00:45:22.177Z,15.81
2018-06-07T00:46:22.475Z,15.80
2018-06-07T00:47:22.194Z,15.80
2018-06-07T00:48:22.331Z,15.80
2018-06-07T00:49:22.346Z,15.81
2018-06-07T00:50:22.250Z,15.80
2018-06-07T00:51:22.347Z,15.96
2018-06-07T00:52:22.261Z,15.87
2018-06-07T00:53:22.264Z,15.81
2018-06-07T00:54:22.292Z,15.85
2018-06-07T00:55:22.302Z,15.87
2018-06-07T00:56:22.408Z,15.91
2018-06-07T00:57:22.444Z,15.94
2018-06-07T00:58:22.320Z,15.90
2018-06-07T00:59:22.331Z,15.92
2018-06-07T01:00:22.354Z,15.91
2018-06-07T01:01:22.492Z,15.94
2018-06-07T01:02:22.481Z,16.03
2018-06-07T01:03:22.399Z,16.00
2018-06-07T01:04:22.526Z,15.96
2018-06-07T01:05:22.426Z,16.00
2018-06-07T01:06:22.439Z,15.96
2018-06-07T01:07:22.540Z,16.02
2018-06-07T01:08:22.575Z,16.02
2018-06-07T01:09:22.467Z,16.03
2018-06-07T01:10:22.487Z,16.02
2018-06-07T01:11:22.491Z,16.12
2018-06-07T01:12:22.504Z,16.12
2018-06-07T01:13:22.611Z,16.12
2018-06-07T01:14:22.533Z,16.08
2018-06-07T01:15:22.588Z,16.09
2018-06-07T01:16:22.561Z,16.12
2018-06-07T01:17:22.576Z,16.12
2018-06-07T01:18:22.668Z,16.13
2018-06-07T01:19:22.616Z,16.09
2018-06-07T01:20:22.721Z,16.10
2018-06-07T01:21:22.736Z,16.12
2018-06-07T01:22:22.631Z,16.09
2018-06-07T01:23:22.729Z,16.12
2018-06-07T01:24:22.654Z,16.16
2018-06-07T01:25:22.664Z,16.10
2018-06-07T01:26:22.802Z,16.08
2018-06-07T01:27:22.675Z,16.10
2018-06-07T01:28:22.794Z,16.00
2018-06-07T01:29:22.709Z,16.08
2018-06-07T01:30:22.738Z,16.05
2018-06-07T01:31:22.859Z,16.03
2018-06-07T01:32:22.747Z,16.05
2018-06-07T01:33:22.982Z,15.99
2018-06-07T01:34:22.768Z,15.91
2018-06-07T01:35:22.774Z,15.91
2018-06-07T01:36:22.921Z,15.90
2018-06-07T01:37:22.804Z,15.90
2018-06-07T01:38:23.043Z,15.91
2018-06-07T01:39:22.959Z,15.92
2018-06-07T01:40:22.847Z,15.96
2018-06-07T01:41:22.862Z,15.91
2018-06-07T01:42:22.863Z,15.91
2018-06-07T01:43:23.104Z,15.92
2018-06-07T01:44:22.888Z,15.87
2018-06-07T01:45:22.900Z,15.96
2018-06-07T01:46:23.040Z,15.90
2018-06-07T01:47:22.939Z,15.88
2018-06-07T01:48:23.041Z,15.90
2018-06-07T01:49:23.081Z,15.88
2018-06-07T01:50:22.973Z,15.81
2018-06-07T01:51:22.973Z,15.84
2018-06-07T01:52:22.997Z,15.81
2018-06-07T01:53:23.131Z,15.80
2018-06-07T01:54:23.115Z,15.85
2018-06-07T01:55:23.034Z,15.83
2018-06-07T01:56:23.052Z,15.81
2018-06-07T01:57:23.180Z,15.91
2018-06-07T01:58:23.187Z,15.83
2018-06-07T01:59:23.187Z,15.83
2018-06-07T02:00:23.090Z,15.80
2018-06-07T02:01:23.114Z,15.83
2018-06-07T02:02:23.239Z,15.85
2018-06-07T02:03:23.134Z,15.83
2018-06-07T02:04:23.148Z,15.87
2018-06-07T02:05:23.257Z,15.92
2018-06-07T02:06:23.167Z,15.94
2018-06-07T02:07:23.173Z,15.92
2018-06-07T02:08:23.185Z,16.03
2018-06-07T02:09:23.323Z,15.94
2018-06-07T02:10:23.314Z,15.96
2018-06-07T02:11:23.231Z,15.98
2018-06-07T02:12:23.362Z,16.03
2018-06-07T02:13:23.374Z,16.03
2018-06-07T02:14:23.256Z,16.03
2018-06-07T02:15:23.373Z,16.13
2018-06-07T02:16:23.318Z,16.12
2018-06-07T02:17:23.294Z,16.17
2018-06-07T02:18:23.318Z,16.09
2018-06-07T02:19:23.327Z,16.13
2018-06-07T02:20:23.340Z,16.12
2018-06-07T02:21:23.575Z,16.24
2018-06-07T02:22:23.486Z,16.24
2018-06-07T02:23:23.497Z,16.16
2018-06-07T02:24:23.509Z,16.25
2018-06-07T02:25:23.396Z,16.21
2018-06-07T02:26:23.633Z,16.25
2018-06-07T02:27:23.421Z,16.28
2018-06-07T02:28:23.435Z,16.24
2018-06-07T02:29:23.573Z,16.31
2018-06-07T02:30:23.583Z,16.32
2018-06-07T02:31:23.695Z,16.28
2018-06-07T02:32:23.494Z,16.34
2018-06-07T02:33:23.492Z,16.36
2018-06-07T02:34:23.633Z,16.47
2018-06-07T02:35:23.522Z,16.50
2018-06-07T02:36:23.642Z,16.41
2018-06-07T02:37:23.674Z,16.32
2018-06-07T02:38:23.568Z,16.39
2018-06-07T02:39:23.570Z,16.37
2018-06-07T02:40:23.707Z,16.47
2018-06-07T02:41:23.705Z,16.43
2018-06-07T02:42:23.604Z,16.44
2018-06-07T02:43:23.745Z,16.44
2018-06-07T02:44:23.639Z,16.39
2018-06-07T02:45:23.645Z,16.44
2018-06-07T02:46:23.759Z,16.40
2018-06-07T02:47:23.677Z,16.43
2018-06-07T02:48:23.694Z,16.43
2018-06-07T02:49:23.709Z,16.44
2018-06-07T02:50:23.712Z,16.44
2018-06-07T02:51:23.948Z,16.47
2018-06-07T02:52:23.735Z,16.40
2018-06-07T02:53:23.743Z,16.36
2018-06-07T02:54:23.775Z,16.46
2018-06-07T02:55:23.898Z,16.58
2018-06-07T02:56:23.891Z,16.57
2018-06-07T02:57:23.810Z,16.47
2018-06-07T02:58:23.819Z,16.50
2018-06-07T02:59:23.834Z,16.47
2018-06-07T03:00:23.962Z,16.59
2018-06-07T03:01:23.964Z,16.46
2018-06-07T03:02:23.871Z,16.44
2018-06-07T03:03:23.997Z,16.49
2018-06-07T03:04:24.012Z,16.46
2018-06-07T03:05:23.916Z,16.44
2018-06-07T03:06:24.029Z,16.49
2018-06-07T03:07:23.927Z,16.58
2018-06-07T03:08:23.930Z,16.57
2018-06-07T03:09:24.075Z,16.59
2018-06-07T03:10:24.085Z,16.46
2018-06-07T03:11:24.198Z,16.54
2018-06-07T03:12:23.990Z,16.59
2018-06-07T03:13:23.998Z,16.61
2018-06-07T03:14:24.015Z,16.58
2018-06-07T03:15:24.023Z,16.50
2018-06-07T03:16:24.249Z,16.57
2018-06-07T03:17:24.052Z,16.58
2018-06-07T03:18:24.063Z,16.57
2018-06-07T03:19:24.204Z,16.64
2018-06-07T03:20:24.210Z,16.57
2018-06-07T03:21:24.199Z,16.64
2018-06-07T03:22:24.235Z,16.54
2018-06-07T03:23:24.252Z,16.58
2018-06-07T03:24:24.137Z,16.65
2018-06-07T03:25:24.287Z,16.65
2018-06-07T03:26:24.273Z,16.62
2018-06-07T03:27:24.172Z,16.64
2018-06-07T03:28:24.192Z,16.64
2018-06-07T03:29:24.201Z,16.62
2018-06-07T03:30:24.211Z,16.66
2018-06-07T03:31:24.268Z,16.65
2018-06-07T03:32:24.345Z,16.62
2018-06-07T03:33:24.248Z,16.65
2018-06-07T03:34:24.395Z,16.64
2018-06-07T03:35:24.279Z,16.64
2018-06-07T03:36:24.296Z,16.68
2018-06-07T03:37:24.428Z,16.65
2018-06-07T03:38:24.514Z,16.61
2018-06-07T03:39:24.327Z,16.69
2018-06-07T03:40:24.349Z,16.64
2018-06-07T03:41:24.477Z,16.64
2018-06-07T03:42:24.378Z,16.69
2018-06-07T03:43:24.581Z,16.72
2018-06-07T03:44:24.519Z,16.73
2018-06-07T03:45:24.531Z,16.74
2018-06-07T03:46:24.546Z,16.79
2018-06-07T03:47:24.442Z,16.77
2018-06-07T03:48:24.549Z,16.76
2018-06-07T03:49:24.468Z,16.84
2018-06-07T03:50:24.479Z,16.82
2018-06-07T03:51:24.480Z,16.83
2018-06-07T03:52:24.622Z,16.83
2018-06-07T03:53:24.706Z,16.83
2018-06-07T03:54:24.533Z,16.77
2018-06-07T03:55:24.538Z,16.82
2018-06-07T03:56:24.550Z,16.87
2018-06-07T03:57:24.581Z,16.76
2018-06-07T03:58:24.769Z,16.74
2018-06-07T03:59:24.594Z,16.77
2018-06-07T04:00:24.609Z,16.87
2018-06-07T04:01:24.621Z,16.82
2018-06-07T04:02:24.755Z,16.89
2018-06-07T04:03:24.638Z,16.91
2018-06-07T04:04:24.898Z,16.79
2018-06-07T04:05:24.787Z,16.80
2018-06-07T04:06:24.802Z,16.84
2018-06-07T04:07:24.813Z,16.68
2018-06-07T04:08:24.706Z,16.79
2018-06-07T04:09:25.162Z,16.76
2018-06-07T04:10:24.732Z,16.64
2018-06-07T04:11:24.866Z,16.64
2018-06-07T04:12:24.749Z,16.65
2018-06-07T04:13:24.777Z,16.62
2018-06-07T04:14:24.984Z,16.57
2018-06-07T04:15:24.801Z,16.51
2018-06-07T04:16:24.926Z,16.50
2018-06-07T04:17:24.942Z,16.46
2018-06-07T04:18:24.840Z,16.40
2018-06-07T04:19:25.236Z,16.46
2018-06-07T04:21:24.866Z,16.39
2018-06-07T04:22:24.867Z,16.40
2018-06-07T04:23:24.903Z,16.43
2018-06-07T04:24:25.110Z,16.41
2018-06-07T04:25:24.928Z,16.49
2018-06-07T04:26:24.925Z,16.44
2018-06-07T04:27:24.951Z,16.47
2018-06-07T04:28:24.957Z,16.41
2018-06-07T04:29:25.183Z,16.44
2018-06-07T04:30:24.979Z,16.43
2018-06-07T04:31:24.994Z,16.40
2018-06-07T04:32:25.003Z,16.50
2018-06-07T04:33:25.041Z,16.46
2018-06-07T04:34:25.045Z,16.54
2018-06-07T04:35:25.239Z,16.49
2018-06-07T04:36:25.052Z,16.58
2018-06-07T04:37:25.073Z,16.62
2018-06-07T04:38:25.086Z,16.59
2018-06-07T04:39:25.101Z,16.61
2018-06-07T04:40:25.312Z,16.64
2018-06-07T04:41:25.117Z,16.64
2018-06-07T04:42:25.160Z,16.66
2018-06-07T04:43:25.164Z,16.66
2018-06-07T04:44:25.165Z,16.69
2018-06-07T04:45:25.181Z,16.68
2018-06-07T04:46:25.644Z,16.76
2018-06-07T04:47:25.200Z,16.77
2018-06-07T04:48:25.216Z,16.72
2018-06-07T04:49:25.229Z,16.68
2018-06-07T04:50:25.236Z,16.74
2018-06-07T04:51:25.342Z,16.69
2018-06-07T04:52:25.273Z,16.68
2018-06-07T04:53:25.284Z,16.79
2018-06-07T04:54:25.302Z,16.83
2018-06-07T04:55:25.340Z,16.72
2018-06-07T04:56:25.431Z,16.74
2018-06-07T04:57:25.335Z,16.76
2018-06-07T04:58:25.362Z,16.68
2018-06-07T04:59:25.366Z,16.79
2018-06-07T05:00:25.361Z,16.80
2018-06-07T05:01:25.499Z,16.80
2018-06-07T05:02:25.396Z,16.84
2018-06-07T05:03:25.415Z,16.83
2018-06-07T05:04:25.420Z,16.82
2018-06-07T05:05:25.436Z,16.82
2018-06-07T05:06:25.543Z,16.79
2018-06-07T05:07:25.462Z,16.74
2018-06-07T05:08:25.480Z,16.79
2018-06-07T05:09:25.478Z,16.76
2018-06-07T05:10:25.512Z,16.79
2018-06-07T05:11:25.701Z,16.69
2018-06-07T05:12:25.650Z,16.74
2018-06-07T05:13:25.531Z,16.65
2018-06-07T05:14:25.566Z,16.65
2018-06-07T05:15:25.552Z,16.73
2018-06-07T05:16:25.762Z,16.68
2018-06-07T05:17:25.590Z,16.68
2018-06-07T05:18:25.614Z,16.69
2018-06-07T05:19:25.622Z,16.66
2018-06-07T05:20:25.633Z,16.69
2018-06-07T05:21:25.760Z,16.69
2018-06-07T05:22:25.644Z,16.61
2018-06-07T05:23:25.673Z,16.58
2018-06-07T05:24:25.681Z,16.55
2018-06-07T05:25:25.705Z,16.51
2018-06-07T05:26:25.903Z,16.40
2018-06-07T05:27:25.728Z,16.39
2018-06-07T05:28:25.719Z,16.32
2018-06-07T05:29:25.734Z,16.44
2018-06-07T05:30:25.759Z,16.47
2018-06-07T05:31:25.867Z,16.40
2018-06-07T05:32:25.769Z,16.34
2018-06-07T05:33:25.805Z,16.34
2018-06-07T05:34:25.792Z,16.32
2018-06-07T05:35:25.823Z,16.34
2018-06-07T05:36:25.938Z,16.26
2018-06-07T05:37:25.843Z,16.26
2018-06-07T05:38:25.868Z,16.36
2018-06-07T05:39:25.867Z,16.25
2018-06-07T05:40:25.885Z,16.25
2018-06-07T05:41:26.094Z,16.25
2018-06-07T05:42:25.898Z,16.25
2018-06-07T05:43:25.932Z,16.22
2018-06-07T05:44:26.009Z,16.18
2018-06-07T05:45:25.946Z,16.21
2018-06-07T05:46:26.157Z,16.13
2018-06-07T05:47:25.977Z,16.22
2018-06-07T05:48:25.980Z,16.21
2018-06-07T05:49:25.991Z,16.17
2018-06-07T05:50:26.016Z,16.18
2018-06-07T05:51:26.220Z,16.21
2018-06-07T05:52:26.029Z,16.18
2018-06-07T05:53:26.050Z,16.09
2018-06-07T05:54:26.074Z,16.21
2018-06-07T05:55:26.079Z,16.10
2018-06-07T05:56:26.286Z,16.09
2018-06-07T05:57:26.094Z,16.09
2018-06-07T05:58:26.091Z,16.10
2018-06-07T05:59:26.203Z,16.13
2018-06-07T06:00:26.121Z,16.06
2018-06-07T06:01:26.135Z,16.02
2018-06-07T06:02:26.361Z,16.02
2018-06-07T06:03:26.212Z,15.92
2018-06-07T06:04:26.170Z,16.05
2018-06-07T06:05:26.196Z,15.99
2018-06-07T06:06:26.201Z,16.00
2018-06-07T06:07:26.312Z,15.96
2018-06-07T06:08:26.238Z,16.02
2018-06-07T06:09:26.315Z,16.03
2018-06-07T06:10:26.244Z,15.94
2018-06-07T06:11:26.253Z,15.91
2018-06-07T06:12:26.468Z,15.87
2018-06-07T06:13:26.274Z,15.91
2018-06-07T06:14:26.320Z,15.96
2018-06-07T06:15:26.318Z,15.90
2018-06-07T06:16:26.339Z,15.91
2018-06-07T06:17:26.553Z,16.00
2018-06-07T06:18:26.365Z,15.91
2018-06-07T06:19:26.353Z,15.90
2018-06-07T06:20:26.365Z,15.85
2018-06-07T06:21:26.431Z,15.92
2018-06-07T06:22:26.599Z,15.92
2018-06-07T06:23:26.418Z,15.81
2018-06-07T06:24:26.417Z,15.81
2018-06-07T06:25:26.424Z,15.85
2018-06-07T06:26:26.436Z,15.88
2018-06-07T06:27:26.460Z,15.83
2018-06-07T06:28:26.586Z,15.83
2018-06-07T06:29:26.483Z,15.85
2018-06-07T06:30:26.494Z,15.90
2018-06-07T06:31:26.521Z,15.87
2018-06-07T06:32:26.513Z,15.90
2018-06-07T06:33:26.702Z,15.91
2018-06-07T06:34:26.529Z,15.80
2018-06-07T06:35:26.570Z,15.92
2018-06-07T06:36:26.556Z,15.85
2018-06-07T06:37:26.582Z,15.84
2018-06-07T06:38:26.785Z,15.84
2018-06-07T06:39:26.597Z,15.78
2018-06-07T06:40:26.604Z,15.78
2018-06-07T06:41:26.637Z,15.94
2018-06-07T06:42:26.648Z,15.76
2018-06-07T06:43:26.866Z,15.87
2018-06-07T06:44:26.650Z,15.84
2018-06-07T06:45:26.676Z,15.78
2018-06-07T06:46:26.732Z,15.80
2018-06-07T06:47:26.714Z,15.80
2018-06-07T06:48:26.904Z,15.78
2018-06-07T06:49:26.778Z,15.80
2018-06-07T06:50:26.740Z,15.78
2018-06-07T06:51:26.738Z,15.84
2018-06-07T06:52:26.772Z,15.75
2018-06-07T06:53:27.323Z,15.72
2018-06-07T06:54:26.780Z,15.84
2018-06-07T06:55:26.794Z,15.80
2018-06-07T06:56:26.796Z,15.76
2018-06-07T06:57:26.809Z,15.81
2018-06-07T06:58:27.032Z,15.81
2018-06-07T06:59:26.853Z,15.73
2018-06-07T07:00:26.857Z,15.75
2018-06-07T07:01:26.858Z,15.78
2018-06-07T07:02:26.873Z,15.80
2018-06-07T07:03:26.990Z,15.76
2018-06-07T07:04:26.909Z,15.84
2018-06-07T07:05:26.908Z,15.80
2018-06-07T07:06:26.916Z,15.73
2018-06-07T07:07:26.940Z,15.78
2018-06-07T07:08:27.063Z,15.76
2018-06-07T07:09:26.955Z,15.75
2018-06-07T07:10:26.961Z,15.76
2018-06-07T07:11:26.999Z,15.75
2018-06-07T07:12:27.010Z,15.66
2018-06-07T07:13:27.109Z,15.76
2018-06-07T07:14:27.031Z,15.78
2018-06-07T07:15:27.142Z,15.65
2018-06-07T07:16:27.039Z,15.73
2018-06-07T07:17:27.053Z,15.72
2018-06-07T07:18:27.275Z,15.78
2018-06-07T07:19:27.099Z,15.72
2018-06-07T07:20:27.084Z,15.75
2018-06-07T07:21:27.091Z,15.75
2018-06-07T07:22:27.115Z,15.70
2018-06-07T07:23:27.237Z,15.70
2018-06-07T07:24:27.148Z,15.73
2018-06-07T07:25:27.158Z,15.72
2018-06-07T07:26:27.171Z,15.62
2018-06-07T07:27:27.177Z,15.73
2018-06-07T07:28:27.190Z,15.72
2018-06-07T07:29:27.410Z,15.75
2018-06-07T07:30:27.212Z,15.69
2018-06-07T07:31:27.232Z,15.66
2018-06-07T07:32:27.222Z,15.76
2018-06-07T07:33:27.241Z,15.72
2018-06-07T07:34:27.390Z,15.75
2018-06-07T07:35:27.262Z,15.66
2018-06-07T07:36:27.288Z,15.78
2018-06-07T07:37:27.291Z,15.72
2018-06-07T07:38:27.328Z,15.73
2018-06-07T07:39:27.513Z,15.72
2018-06-07T07:40:27.325Z,15.75
2018-06-07T07:41:27.332Z,15.76
2018-06-07T07:42:27.350Z,15.75
2018-06-07T07:43:27.357Z,15.76
2018-06-07T07:44:27.380Z,15.72
2018-06-07T07:45:27.579Z,15.78
2018-06-07T07:46:27.391Z,15.84
2018-06-07T07:47:27.403Z,15.78
2018-06-07T07:48:27.438Z,15.80
2018-06-07T07:49:27.452Z,15.91
2018-06-07T07:50:27.660Z,15.88
2018-06-07T07:51:27.448Z,15.78
2018-06-07T07:52:27.463Z,15.81
2018-06-07T07:53:27.496Z,15.90
2018-06-07T07:54:27.500Z,15.92
2018-06-07T07:55:27.612Z,15.91
2018-06-07T07:56:27.515Z,15.94
2018-06-07T07:57:27.530Z,15.90
2018-06-07T07:58:27.570Z,15.94
2018-06-07T07:59:27.556Z,15.91
2018-06-07T08:00:27.774Z,15.96
2018-06-07T08:01:27.584Z,16.02
2018-06-07T08:02:27.614Z,16.06
2018-06-07T08:03:27.621Z,15.94
2018-06-07T08:04:27.607Z,16.05
2018-06-07T08:05:27.741Z,16.02
2018-06-07T08:06:27.645Z,16.02
2018-06-07T08:07:27.650Z,16.03
2018-06-07T08:08:27.677Z,16.00
2018-06-07T08:09:27.689Z,16.10
2018-06-07T08:10:27.898Z,16.16
2018-06-07T08:11:27.712Z,16.08
2018-06-07T08:12:27.715Z,16.09
2018-06-07T08:13:27.738Z,16.09
2018-06-07T08:14:27.749Z,16.12
2018-06-07T08:15:27.856Z,16.16
2018-06-07T08:16:27.781Z,16.16
2018-06-07T08:17:27.777Z,16.06
2018-06-07T08:18:27.783Z,16.12
2018-06-07T08:19:27.815Z,16.09
2018-06-07T08:20:27.922Z,16.16
2018-06-07T08:21:27.826Z,16.18
2018-06-07T08:22:27.838Z,16.12
2018-06-07T08:23:27.841Z,16.09
2018-06-07T08:24:27.852Z,16.12
2018-06-07T08:25:28.082Z,16.06
2018-06-07T08:26:27.891Z,16.08
2018-06-07T08:27:27.913Z,16.12
2018-06-07T08:28:27.904Z,16.17
2018-06-07T08:29:27.920Z,16.13
2018-06-07T08:30:28.259Z,16.24
2018-06-07T08:31:27.943Z,16.13
2018-06-07T08:32:27.972Z,16.22
2018-06-07T08:33:27.984Z,16.16
2018-06-07T08:34:27.985Z,16.17
2018-06-07T08:35:28.260Z,16.24
2018-06-07T08:36:28.018Z,16.22
2018-06-07T08:37:28.022Z,16.21
2018-06-07T08:38:28.024Z,16.16
2018-06-07T08:39:28.100Z,16.22
2018-06-07T08:40:28.166Z,16.21
2018-06-07T08:41:28.074Z,16.22
2018-06-07T08:42:28.092Z,16.21
2018-06-07T08:43:28.096Z,16.18
2018-06-07T08:44:28.095Z,16.10
2018-06-07T08:45:28.113Z,16.24
2018-06-07T08:46:28.250Z,16.10
2018-06-07T08:47:28.159Z,16.10
2018-06-07T08:48:28.171Z,16.08
2018-06-07T08:49:28.189Z,16.13
2018-06-07T08:50:28.193Z,16.08
2018-06-07T08:51:28.288Z,16.09
2018-06-07T08:52:28.209Z,16.16
2018-06-07T08:53:28.222Z,16.21
2018-06-07T08:54:28.234Z,16.16
2018-06-07T08:55:28.240Z,16.08
2018-06-07T08:56:28.469Z,16.09
2018-06-07T08:57:28.282Z,16.08
2018-06-07T08:58:28.274Z,16.21
2018-06-07T08:59:28.290Z,16.13
2018-06-07T09:00:28.466Z,16.24
2018-06-07T09:01:28.522Z,16.08
2018-06-07T09:02:28.330Z,16.18
2018-06-07T09:03:28.343Z,16.18
2018-06-07T09:04:28.363Z,16.22
2018-06-07T09:05:28.365Z,16.17
2018-06-07T09:06:28.371Z,16.24
2018-06-07T09:07:28.499Z,16.21
2018-06-07T09:08:28.392Z,16.24
2018-06-07T09:09:28.430Z,16.25
2018-06-07T09:10:28.430Z,16.21
2018-06-07T09:11:28.455Z,16.12
2018-06-07T09:12:28.564Z,16.25
2018-06-07T09:13:28.482Z,16.18
2018-06-07T09:14:28.472Z,16.21
2018-06-07T09:15:28.504Z,16.22
2018-06-07T09:16:28.511Z,16.21
2018-06-07T09:17:28.767Z,16.16
2018-06-07T09:18:28.530Z,16.25
2018-06-07T09:19:28.594Z,16.22
2018-06-07T09:20:28.561Z,16.17
2018-06-07T09:21:28.556Z,16.29
2018-06-07T09:22:28.678Z,16.28
2018-06-07T09:23:28.587Z,16.24
2018-06-07T09:24:28.615Z,16.21
2018-06-07T09:25:28.608Z,16.29
2018-06-07T09:26:28.627Z,16.28
2018-06-07T09:27:28.756Z,16.32
2018-06-07T09:28:28.648Z,16.25
2018-06-07T09:29:28.654Z,16.22
2018-06-07T09:30:28.671Z,16.21
2018-06-07T09:31:28.699Z,16.22
2018-06-07T09:32:28.801Z,16.10
2018-06-07T09:33:28.723Z,16.13
2018-06-07T09:34:28.783Z,16.10
2018-06-07T09:35:28.744Z,16.06
2018-06-07T09:36:28.751Z,16.09
2018-06-07T09:37:28.861Z,16.17
2018-06-07T09:38:28.782Z,16.09
2018-06-07T09:39:28.781Z,16.21
2018-06-07T09:40:28.930Z,16.09
2018-06-07T09:42:28.920Z,16.10
2018-06-07T09:43:28.840Z,16.13
2018-06-07T09:44:28.858Z,16.17
2018-06-07T09:45:28.851Z,16.25
2018-06-07T09:46:28.878Z,16.26
2018-06-07T09:47:28.995Z,16.22
2018-06-07T09:48:28.913Z,16.24
2018-06-07T09:49:28.923Z,16.26
2018-06-07T09:50:28.933Z,16.31
2018-06-07T09:51:28.944Z,16.29
2018-06-07T09:52:29.048Z,16.31
2018-06-07T09:53:28.971Z,16.37
2018-06-07T09:54:28.987Z,16.31
2018-06-07T09:55:28.995Z,16.29
2018-06-07T09:56:29.006Z,16.37
2018-06-07T09:57:29.112Z,16.32
2018-06-07T09:58:29.015Z,16.36
2018-06-07T09:59:29.050Z,16.36
2018-06-07T10:00:29.066Z,16.41
2018-06-07T10:01:29.065Z,16.34
2018-06-07T10:02:29.073Z,16.40
2018-06-07T10:03:29.291Z,16.32
2018-06-07T10:04:29.092Z,16.40
2018-06-07T10:05:29.125Z,16.36
2018-06-07T10:06:29.124Z,16.37
2018-06-07T10:07:29.135Z,16.49
2018-06-07T10:08:29.346Z,16.40
2018-06-07T10:09:29.171Z,16.43
2018-06-07T10:10:29.177Z,16.32
2018-06-07T10:11:29.183Z,16.32
2018-06-07T10:12:29.188Z,16.39
2018-06-07T10:13:29.322Z,16.39
2018-06-07T10:14:29.214Z,16.44
2018-06-07T10:15:29.245Z,16.40
2018-06-07T10:16:29.251Z,16.31
2018-06-07T10:17:29.278Z,16.36
2018-06-07T10:18:29.497Z,16.31
2018-06-07T10:19:29.310Z,16.41
2018-06-07T10:20:29.302Z,16.36
2018-06-07T10:21:29.323Z,16.44
2018-06-07T10:22:29.352Z,16.40
2018-06-07T10:23:29.537Z,16.40
2018-06-07T10:24:29.356Z,16.47
2018-06-07T10:25:29.376Z,16.47
2018-06-07T10:26:29.379Z,16.51
2018-06-07T10:27:29.386Z,16.55
2018-06-07T10:28:29.499Z,16.47
2018-06-07T10:29:29.400Z,16.54
2018-06-07T10:30:29.448Z,16.58
2018-06-07T10:31:29.442Z,16.59
2018-06-07T10:32:29.441Z,16.49
2018-06-07T10:33:29.623Z,16.62
2018-06-07T10:34:29.489Z,16.58
2018-06-07T10:35:29.497Z,16.62
2018-06-07T10:36:29.503Z,16.65
2018-06-07T10:37:29.528Z,16.64
2018-06-07T10:38:29.663Z,16.72
2018-06-07T10:39:29.547Z,16.72
2018-06-07T10:40:29.555Z,16.72
2018-06-07T10:41:29.566Z,16.68
2018-06-07T10:42:29.584Z,16.72
2018-06-07T10:43:29.692Z,16.83
2018-06-07T10:44:29.613Z,16.82
2018-06-07T10:45:29.622Z,16.79
2018-06-07T10:46:29.626Z,16.86
2018-06-07T10:47:29.703Z,16.92
2018-06-07T10:48:29.755Z,16.87
2018-06-07T10:49:29.671Z,16.89
2018-06-07T10:50:29.689Z,17.10
2018-06-07T10:51:29.689Z,17.01
2018-06-07T10:52:29.705Z,17.01
2018-06-07T10:53:29.832Z,17.07
2018-06-07T10:54:29.747Z,17.09
2018-06-07T10:55:29.732Z,17.01
2018-06-07T10:56:29.771Z,17.05
2018-06-07T10:57:29.765Z,16.98
2018-06-07T10:58:29.904Z,17.07
2018-06-07T10:59:29.790Z,17.07
2018-06-07T11:00:29.807Z,17.01
2018-06-07T11:01:29.833Z,17.05
2018-06-07T11:02:29.840Z,17.01
2018-06-07T11:03:30.010Z,17.07
2018-06-07T11:04:29.895Z,17.04
2018-06-07T11:05:29.876Z,17.01
2018-06-07T11:06:29.887Z,17.01
2018-06-07T11:07:29.893Z,17.10
2018-06-07T11:08:30.027Z,17.14
2018-06-07T11:09:29.936Z,17.22
2018-06-07T11:10:29.953Z,17.31
2018-06-07T11:11:29.979Z,17.41
2018-06-07T11:12:29.958Z,17.50
2018-06-07T11:13:30.077Z,17.49
2018-06-07T11:14:30.002Z,17.50
2018-06-07T11:15:29.998Z,17.66
2018-06-07T11:16:30.040Z,17.69
2018-06-07T11:17:30.043Z,17.71
2018-06-07T11:18:30.157Z,17.71
2018-06-07T11:19:30.063Z,17.88
2018-06-07T11:20:30.067Z,17.93
2018-06-07T11:21:30.079Z,17.86
2018-06-07T11:22:30.106Z,17.87
2018-06-07T11:23:30.221Z,17.98
2018-06-07T11:24:30.144Z,18.00
2018-06-07T11:25:30.160Z,18.05
2018-06-07T11:26:30.164Z,17.98
2018-06-07T11:27:30.199Z,18.02
2018-06-07T11:28:30.276Z,18.02
2018-06-07T11:29:30.194Z,18.02
2018-06-07T11:30:30.247Z,18.02
2018-06-07T11:31:30.291Z,18.08
2018-06-07T11:32:30.253Z,18.15
2018-06-07T11:33:30.367Z,18.13
2018-06-07T11:34:30.274Z,18.13
2018-06-07T11:35:30.282Z,18.11
2018-06-07T11:36:30.297Z,18.09
2018-06-07T11:37:30.312Z,18.08
2018-06-07T11:38:30.426Z,18.08
2018-06-07T11:39:30.355Z,18.06
2018-06-07T11:40:30.343Z,18.06
2018-06-07T11:41:30.365Z,18.09
2018-06-07T11:42:30.394Z,18.00
2018-06-07T11:43:30.487Z,17.97
2018-06-07T11:44:30.414Z,17.87
2018-06-07T11:45:30.417Z,17.93
2018-06-07T11:46:30.441Z,17.82
2018-06-07T11:47:30.447Z,17.73
2018-06-07T11:48:30.679Z,17.82
2018-06-07T11:49:30.493Z,17.78
2018-06-07T11:50:30.499Z,17.79
2018-06-07T11:51:30.525Z,17.80
2018-06-07T11:52:30.537Z,17.73
2018-06-07T11:53:30.629Z,17.75
2018-06-07T11:54:30.566Z,17.72
2018-06-07T11:55:30.577Z,17.78
2018-06-07T11:56:30.576Z,17.76
2018-06-07T11:57:30.599Z,17.80
2018-06-07T11:58:30.704Z,17.79
2018-06-07T11:59:30.629Z,17.73
2018-06-07T12:00:30.652Z,17.82
2018-06-07T12:01:30.638Z,17.91
2018-06-07T12:02:30.665Z,17.84
2018-06-07T12:03:30.878Z,17.88
2018-06-07T12:04:30.699Z,17.87
2018-06-07T12:05:30.693Z,17.90
2018-06-07T12:06:30.714Z,17.82
2018-06-07T12:07:30.741Z,17.87
2018-06-07T12:08:31.017Z,18.00
2018-06-07T12:09:30.754Z,18.02
2018-06-07T12:10:30.781Z,18.11
2018-06-07T12:11:30.782Z,18.21
2018-06-07T12:12:30.879Z,18.23
2018-06-07T12:13:30.928Z,18.24
2018-06-07T12:14:30.820Z,18.28
2018-06-07T12:15:30.849Z,18.31
2018-06-07T12:16:30.877Z,18.33
2018-06-07T12:17:30.879Z,18.46
2018-06-07T12:18:31.082Z,18.51
2018-06-07T12:19:30.891Z,18.53
2018-06-07T12:20:30.896Z,18.67
2018-06-07T12:21:30.921Z,18.70
2018-06-07T12:22:30.937Z,18.76
2018-06-07T12:23:30.959Z,18.86
2018-06-07T12:24:31.060Z,18.94
2018-06-07T12:25:30.982Z,19.05
2018-06-07T12:26:30.989Z,19.15
2018-06-07T12:27:31.007Z,19.26
2018-06-07T12:28:31.024Z,19.26
2018-06-07T12:29:31.232Z,19.32
2018-06-07T12:30:31.039Z,19.32
2018-06-07T12:31:31.057Z,19.32
2018-06-07T12:32:31.072Z,19.52
2018-06-07T12:33:31.103Z,19.48
2018-06-07T12:34:31.097Z,19.56
2018-06-07T12:35:31.236Z,19.57
2018-06-07T12:36:31.145Z,19.62
2018-06-07T12:37:31.146Z,19.64
2018-06-07T12:38:31.181Z,19.62
2018-06-07T12:39:31.184Z,19.64
2018-06-07T12:40:31.370Z,19.78
2018-06-07T12:41:31.218Z,19.74
2018-06-07T12:42:31.227Z,19.82
2018-06-07T12:43:31.240Z,19.79
2018-06-07T12:44:31.254Z,19.79
2018-06-07T12:45:31.529Z,19.74
2018-06-07T12:46:31.279Z,19.59
2018-06-07T12:47:31.423Z,19.64
2018-06-07T12:48:31.330Z,19.56
2018-06-07T12:49:31.323Z,19.60
2018-06-07T12:50:31.434Z,19.64
2018-06-07T12:51:31.355Z,19.71
2018-06-07T12:52:31.381Z,19.78
2018-06-07T12:53:31.392Z,19.81
2018-06-07T12:54:31.410Z,19.67